Time;durP1;ratioP1;P1;durP2;ratioP2;P2;SDS_P1;SDS_P2;PMS_P1;PMS_P2;Temp;Humidity;BMP_temperature;BMP_pressure;BME280_temperature;BME280_humidity;BME280_pressure;Samples;Min_cycle;Max_cycle;Signal;HPM_P1;HPM_P2
2022/07/13 00:00:49;;;;;;;1.90;0.90;;;;;;;;;;4952965;28;20043;-79
2022/07/13 00:03:14;;;;;;;1.23;0.60;;;;;;;;;;4923327;28;20039;-79
2022/07/13 00:05:39;;;;;;;1.75;0.75;;;;;;;;;;4937737;28;20067;-79
2022/07/13 00:08:05;;;;;;;1.73;0.68;;;;;;;;;;4920489;28;20039;-79
2022/07/13 00:10:30;;;;;;;0.98;0.50;;;;;;;;;;4928094;28;20036;-80
2022/07/13 00:12:55;;;;;;;1.65;0.63;;;;;;;;;;4931686;28;20030;-80
2022/07/13 00:15:21;;;;;;;3.13;0.88;;;;;;;;;;4954571;28;20494;-79
2022/07/13 00:17:46;;;;;;;2.20;0.70;;;;;;;;;;5038262;28;20031;-79
2022/07/13 00:20:12;;;;;;;1.67;0.70;;;;;;;;;;5027393;28;20052;-79
2022/07/13 00:22:39;;;;;;;1.92;0.70;;;;;;;;;;5018254;28;20043;-79
2022/07/13 00:25:05;;;;;;;;;;;;;;;;;;5036244;28;20974;-79
2022/07/13 00:27:30;;;;;;;1.98;0.70;;;;;;;;;;5033679;28;19924;-79
2022/07/13 00:29:55;;;;;;;1.60;0.80;;;;;;;;;;5037330;28;20041;-80
2022/07/13 00:32:21;;;;;;;1.73;0.70;;;;;;;;;;5029139;28;20056;-79
2022/07/13 00:34:47;;;;;;;2.75;1.15;;;;;;;;;;5019174;28;20025;-79
2022/07/13 00:37:12;;;;;;;1.63;0.77;;;;;;;;;;5020230;28;20037;-79
2022/07/13 00:39:37;;;;;;;2.53;0.65;;;;;;;;;;5019631;28;20048;-79
2022/07/13 00:42:03;;;;;;;1.30;0.60;;;;;;;;;;5025514;28;20034;-79
2022/07/13 00:44:28;;;;;;;1.65;0.80;;;;;;;;;;5028781;28;20078;-79
2022/07/13 00:46:55;;;;;;;1.38;0.65;;;;;;;;;;5022106;28;20040;-79
2022/07/13 00:49:22;;;;;;;4.38;0.80;;;;;;;;;;5032407;28;20039;-79
2022/07/13 00:51:47;;;;;;;1.58;0.73;;;;;;;;;;5037212;28;20040;-79
2022/07/13 00:54:12;;;;;;;1.90;0.80;;;;;;;;;;5025548;28;20037;-79
2022/07/13 00:56:38;;;;;;;2.78;1.20;;;;;;;;;;5031064;28;20033;-80
2022/07/13 00:59:05;;;;;;;4.55;1.05;;;;;;;;;;5021611;28;20553;-80
2022/07/13 01:01:30;;;;;;;2.30;0.85;;;;;;;;;;5026215;28;20117;-80
2022/07/13 01:03:56;;;;;;;3.60;0.82;;;;;;;;;;5031832;28;20036;-80
2022/07/13 01:06:21;;;;;;;1.38;0.68;;;;;;;;;;5028692;28;20056;-79
2022/07/13 01:08:46;;;;;;;2.75;0.85;;;;;;;;;;5022231;28;20040;-79
2022/07/13 01:11:12;;;;;;;2.08;0.90;;;;;;;;;;5036798;28;20041;-80
2022/07/13 01:13:38;;;;;;;2.08;0.70;;;;;;;;;;5046565;28;20132;-80
2022/07/13 01:16:03;;;;;;;1.98;0.90;;;;;;;;;;5025224;28;20025;-79
2022/07/13 01:18:30;;;;;;;2.13;0.90;;;;;;;;;;5028574;28;20044;-79
2022/07/13 01:20:56;;;;;;;2.00;0.90;;;;;;;;;;5019690;28;20538;-79
2022/07/13 01:23:22;;;;;;;2.45;1.00;;;;;;;;;;5031485;28;20058;-79
2022/07/13 01:25:48;;;;;;;2.53;1.05;;;;;;;;;;5046410;28;20586;-79
2022/07/13 01:28:16;;;;;;;2.53;0.90;;;;;;;;;;5040282;28;20507;-79
2022/07/13 01:30:43;;;;;;;1.73;0.88;;;;;;;;;;5030694;28;20033;-80
2022/07/13 01:33:08;;;;;;;2.20;1.00;;;;;;;;;;5048275;28;20132;-80
2022/07/13 01:35:34;;;;;;;2.10;0.90;;;;;;;;;;5021074;28;20140;-80
2022/07/13 01:37:59;;;;;;;2.10;0.90;;;;;;;;;;5026001;28;20105;-79
2022/07/13 01:40:25;;;;;;;1.75;0.70;;;;;;;;;;5035604;28;20033;-79
2022/07/13 01:42:51;;;;;;;2.33;0.75;;;;;;;;;;5025464;28;20764;-79
2022/07/13 01:45:24;;;;;;;2.13;0.77;;;;;;;;;;5016601;28;20493;-79
2022/07/13 01:47:52;;;;;;;1.52;0.70;;;;;;;;;;5029818;28;20056;-79
2022/07/13 01:50:19;;;;;;;1.92;1.00;;;;;;;;;;5038782;28;20029;-80
2022/07/13 01:52:44;;;;;;;1.95;0.77;;;;;;;;;;5037535;28;20045;-79
2022/07/13 01:55:12;;;;;;;1.80;0.70;;;;;;;;;;5018433;28;20113;-79
2022/07/13 01:57:40;;;;;;;2.13;0.90;;;;;;;;;;5021645;28;20032;-79
2022/07/13 02:00:08;;;;;;;1.65;0.80;;;;;;;;;;5028918;28;20504;-79
2022/07/13 02:02:33;;;;;;;2.47;0.70;;;;;;;;;;5038034;28;20036;-80
2022/07/13 02:04:58;;;;;;;2.05;0.60;;;;;;;;;;5024910;28;20064;-79
2022/07/13 02:07:24;;;;;;;2.15;0.77;;;;;;;;;;5030624;28;20060;-79
2022/07/13 02:09:50;;;;;;;2.40;0.80;;;;;;;;;;5039508;28;20094;-80
2022/07/13 02:12:16;;;;;;;1.42;0.63;;;;;;;;;;5022516;28;20055;-80
2022/07/13 02:14:42;;;;;;;1.50;0.70;;;;;;;;;;5004270;28;20056;-80
2022/07/13 02:17:07;;;;;;;1.65;0.82;;;;;;;;;;5017143;28;20449;-79
2022/07/13 02:19:33;;;;;;;1.73;0.80;;;;;;;;;;5055940;28;20040;-80
2022/07/13 02:21:58;;;;;;;1.90;0.70;;;;;;;;;;5030154;28;20761;-79
2022/07/13 02:24:24;;;;;;;1.98;0.88;;;;;;;;;;5037849;28;20040;-79
2022/07/13 02:26:49;;;;;;;1.77;0.88;;;;;;;;;;5025269;28;20033;-79
2022/07/13 02:29:15;;;;;;;1.92;0.70;;;;;;;;;;5037945;28;20123;-79
2022/07/13 02:31:40;;;;;;;2.08;0.85;;;;;;;;;;5027487;28;20433;-79
2022/07/13 02:34:05;;;;;;;2.60;0.85;;;;;;;;;;5021944;28;20671;-79
2022/07/13 02:36:31;;;;;;;1.58;0.80;;;;;;;;;;5022171;28;20488;-80
2022/07/13 02:38:57;;;;;;;1.92;0.70;;;;;;;;;;5035638;28;20028;-80
2022/07/13 02:41:22;;;;;;;1.40;0.70;;;;;;;;;;5017774;28;20040;-79
2022/07/13 02:43:48;;;;;;;1.73;0.70;;;;;;;;;;5032892;28;20037;-79
2022/07/13 02:46:14;;;;;;;1.80;0.70;;;;;;;;;;5020312;28;20091;-79
2022/07/13 02:48:39;;;;;;;2.08;0.65;;;;;;;;;;5018917;28;20032;-79
2022/07/13 02:51:05;;;;;;;1.38;0.68;;;;;;;;;;5023627;28;20049;-79
2022/07/13 02:53:30;;;;;;;1.45;0.77;;;;;;;;;;5022826;28;20025;-79
2022/07/13 02:55:55;;;;;;;2.00;0.82;;;;;;;;;;5035412;28;20456;-79
2022/07/13 02:58:21;;;;;;;1.92;0.90;;;;;;;;;;5038630;28;20033;-79
2022/07/13 03:00:46;;;;;;;1.60;0.73;;;;;;;;;;5036429;28;20041;-79
2022/07/13 03:03:11;;;;;;;1.50;0.80;;;;;;;;;;5020919;28;20095;-79
2022/07/13 03:05:37;;;;;;;1.65;0.80;;;;;;;;;;5019216;28;20638;-79
2022/07/13 03:08:02;;;;;;;1.88;0.80;;;;;;;;;;5037061;28;20047;-80
2022/07/13 03:10:28;;;;;;;1.85;0.80;;;;;;;;;;5027782;28;20533;-80
2022/07/13 03:12:54;;;;;;;1.95;0.98;;;;;;;;;;5036428;28;20036;-80
2022/07/13 03:15:20;;;;;;;2.35;0.70;;;;;;;;;;5035682;28;20033;-80
2022/07/13 03:17:45;;;;;;;2.10;0.82;;;;;;;;;;5017235;28;20047;-80
2022/07/13 03:20:11;;;;;;;1.50;0.77;;;;;;;;;;5019099;28;20079;-80
2022/07/13 03:22:37;;;;;;;2.53;1.00;;;;;;;;;;5028568;28;20400;-79
2022/07/13 03:25:05;;;;;;;1.90;0.88;;;;;;;;;;5009889;28;20044;-79
2022/07/13 03:27:31;;;;;;;1.15;0.60;;;;;;;;;;5026942;28;20468;-80
2022/07/13 03:29:56;;;;;;;1.50;0.63;;;;;;;;;;5025113;28;20059;-80
2022/07/13 03:32:21;;;;;;;1.58;0.68;;;;;;;;;;5028965;28;20109;-79
2022/07/13 03:34:47;;;;;;;4.28;0.93;;;;;;;;;;5033946;28;20037;-79
2022/07/13 03:37:12;;;;;;;2.45;0.80;;;;;;;;;;5041413;28;20114;-79
2022/07/13 03:39:38;;;;;;;1.58;0.63;;;;;;;;;;5020398;28;20025;-79
2022/07/13 03:42:04;;;;;;;1.90;0.93;;;;;;;;;;5015356;28;20094;-79
2022/07/13 03:44:29;;;;;;;1.60;0.88;;;;;;;;;;5024866;28;20068;-79
2022/07/13 03:46:55;;;;;;;2.60;1.00;;;;;;;;;;5021284;28;20033;-79
2022/07/13 03:49:20;;;;;;;2.55;0.90;;;;;;;;;;5029692;28;20048;-79
2022/07/13 03:51:46;;;;;;;2.72;0.98;;;;;;;;;;5035253;28;20102;-79
2022/07/13 03:54:12;;;;;;;2.15;0.80;;;;;;;;;;5019844;28;20041;-79
2022/07/13 03:56:39;;;;;;;1.88;0.88;;;;;;;;;;5021697;28;20166;-80
2022/07/13 03:59:05;;;;;;;2.60;0.88;;;;;;;;;;5021232;28;20399;-79
2022/07/13 04:01:30;;;;;;;1.35;0.70;;;;;;;;;;5032935;28;20111;-79
2022/07/13 04:03:55;;;;;;;2.80;0.80;;;;;;;;;;5028105;28;20037;-79
2022/07/13 04:06:21;;;;;;;3.63;0.90;;;;;;;;;;5011288;28;20037;-79
2022/07/13 04:08:46;;;;;;;2.20;0.90;;;;;;;;;;5020358;28;20030;-79
2022/07/13 04:11:11;;;;;;;1.63;0.80;;;;;;;;;;5022525;28;21954;-80
2022/07/13 04:13:37;;;;;;;1.60;0.80;;;;;;;;;;5017906;28;20488;-80
2022/07/13 04:16:02;;;;;;;2.20;1.08;;;;;;;;;;5015747;28;20037;-80
2022/07/13 04:18:28;;;;;;;1.55;0.80;;;;;;;;;;5018557;28;20441;-79
2022/07/13 04:20:53;;;;;;;2.55;1.08;;;;;;;;;;5033533;28;20049;-79
2022/07/13 04:23:18;;;;;;;1.63;0.70;;;;;;;;;;5022014;28;20041;-79
2022/07/13 04:25:45;;;;;;;2.13;0.93;;;;;;;;;;5040662;28;20104;-79
2022/07/13 04:28:10;;;;;;;2.75;0.90;;;;;;;;;;5032122;28;20045;-79
2022/07/13 04:30:38;;;;;;;2.70;0.90;;;;;;;;;;5030850;28;20033;-80
2022/07/13 04:33:06;;;;;;;1.60;0.80;;;;;;;;;;5032774;28;20025;-80
2022/07/13 04:35:32;;;;;;;2.38;1.10;;;;;;;;;;5040517;28;20074;-79
2022/07/13 04:37:57;;;;;;;3.05;1.30;;;;;;;;;;5040071;28;20029;-80
2022/07/13 04:40:22;;;;;;;2.80;1.25;;;;;;;;;;5020457;28;20025;-79
2022/07/13 04:42:48;;;;;;;2.33;1.00;;;;;;;;;;5040440;28;20045;-79
2022/07/13 04:45:13;;;;;;;3.25;1.10;;;;;;;;;;5038175;28;20037;-79
2022/07/13 04:47:39;;;;;;;2.25;0.80;;;;;;;;;;5032149;28;20433;-80
2022/07/13 04:50:05;;;;;;;2.42;1.00;;;;;;;;;;5031841;28;20417;-79
2022/07/13 04:52:31;;;;;;;1.75;1.02;;;;;;;;;;5038374;28;20906;-79
2022/07/13 04:54:56;;;;;;;2.10;1.00;;;;;;;;;;5039546;28;20045;-79
2022/07/13 04:57:22;;;;;;;2.75;1.42;;;;;;;;;;5013466;28;20124;-79
2022/07/13 04:59:47;;;;;;;4.25;1.10;;;;;;;;;;5018965;28;20029;-79
2022/07/13 05:02:12;;;;;;;1.88;0.90;;;;;;;;;;5027734;28;20044;-80
2022/07/13 05:04:38;;;;;;;2.13;0.95;;;;;;;;;;5041510;28;20078;-79
2022/07/13 05:07:03;;;;;;;1.88;0.80;;;;;;;;;;5024729;28;20510;-79
2022/07/13 05:09:31;;;;;;;2.45;0.90;;;;;;;;;;5021637;28;20499;-80
2022/07/13 05:11:56;;;;;;;3.38;1.00;;;;;;;;;;5020735;28;20033;-80
2022/07/13 05:14:22;;;;;;;1.65;0.80;;;;;;;;;;5037554;28;20074;-80
2022/07/13 05:16:47;;;;;;;2.72;1.10;;;;;;;;;;5028082;28;20491;-80
2022/07/13 05:19:12;;;;;;;5.00;1.40;;;;;;;;;;5041539;28;20037;-81
2022/07/13 05:21:38;;;;;;;1.90;0.90;;;;;;;;;;5029540;28;20082;-79
2022/07/13 05:24:03;;;;;;;2.00;0.90;;;;;;;;;;5030284;28;20056;-79
2022/07/13 05:26:29;;;;;;;2.58;0.90;;;;;;;;;;5026744;28;20032;-79
2022/07/13 05:28:56;;;;;;;2.28;0.80;;;;;;;;;;5043140;28;20112;-80
2022/07/13 05:31:21;;;;;;;2.10;0.95;;;;;;;;;;5038823;28;20090;-79
2022/07/13 05:33:46;;;;;;;2.50;0.80;;;;;;;;;;5037874;28;20036;-79
2022/07/13 05:36:12;;;;;;;2.00;0.80;;;;;;;;;;5029713;28;20045;-80
2022/07/13 05:38:37;;;;;;;2.53;1.05;;;;;;;;;;5026365;28;20393;-80
2022/07/13 05:41:03;;;;;;;2.08;0.98;;;;;;;;;;5034383;28;20082;-79
2022/07/13 05:43:28;;;;;;;1.83;0.80;;;;;;;;;;5020198;28;20035;-79
2022/07/13 05:45:53;;;;;;;2.72;1.05;;;;;;;;;;5035610;28;20040;-80
2022/07/13 05:48:19;;;;;;;3.10;1.13;;;;;;;;;;5021364;28;20098;-80
2022/07/13 05:50:44;;;;;;;4.88;1.55;;;;;;;;;;5030169;28;20055;-80
2022/07/13 05:53:10;;;;;;;7.60;1.55;;;;;;;;;;5019964;28;20558;-79
2022/07/13 05:55:35;;;;;;;1.88;0.82;;;;;;;;;;5029257;28;20029;-79
2022/07/13 05:58:00;;;;;;;2.10;0.90;;;;;;;;;;5030883;28;20043;-80
2022/07/13 06:00:26;;;;;;;2.33;0.93;;;;;;;;;;5025910;28;20041;-79
2022/07/13 06:02:53;;;;;;;3.67;1.00;;;;;;;;;;5022556;28;20047;-79
2022/07/13 06:05:18;;;;;;;2.00;0.77;;;;;;;;;;5024523;28;20090;-79
2022/07/13 06:07:45;;;;;;;2.35;1.00;;;;;;;;;;5038325;28;20036;-79
2022/07/13 06:10:10;;;;;;;2.05;0.80;;;;;;;;;;5023753;28;20036;-80
2022/07/13 06:12:35;;;;;;;2.38;0.80;;;;;;;;;;5020494;28;20148;-80
2022/07/13 06:15:01;;;;;;;1.92;0.80;;;;;;;;;;5023273;28;20726;-79
2022/07/13 06:17:26;;;;;;;2.00;0.80;;;;;;;;;;5029147;28;20068;-80
2022/07/13 06:19:52;;;;;;;2.58;0.80;;;;;;;;;;5023305;28;20045;-80
2022/07/13 06:22:20;;;;;;;1.75;0.80;;;;;;;;;;5031988;28;20029;-79
2022/07/13 06:24:45;;;;;;;1.70;0.70;;;;;;;;;;5030152;28;20526;-79
2022/07/13 06:27:10;;;;;;;2.20;0.80;;;;;;;;;;5028280;28;20056;-79
2022/07/13 06:29:36;;;;;;;1.90;0.70;;;;;;;;;;5028620;28;20057;-79
2022/07/13 06:32:01;;;;;;;1.60;0.60;;;;;;;;;;5020415;28;20029;-81
2022/07/13 06:34:27;;;;;;;1.67;0.60;;;;;;;;;;5029492;28;20044;-79
2022/07/13 06:36:52;;;;;;;2.92;0.80;;;;;;;;;;5030401;28;20306;-79
2022/07/13 06:39:18;;;;;;;2.15;0.90;;;;;;;;;;5034275;28;20400;-80
2022/07/13 06:41:45;;;;;;;1.27;0.60;;;;;;;;;;5036059;28;20049;-80
2022/07/13 06:44:10;;;;;;;1.58;0.70;;;;;;;;;;5035199;28;20029;-79
2022/07/13 06:46:36;;;;;;;1.20;0.77;;;;;;;;;;5035859;28;20424;-79
2022/07/13 06:49:01;;;;;;;1.98;0.73;;;;;;;;;;5022665;28;20033;-79
2022/07/13 06:51:27;;;;;;;2.00;0.70;;;;;;;;;;5027738;28;20055;-80
2022/07/13 06:53:53;;;;;;;1.88;0.80;;;;;;;;;;5025468;28;20550;-80
2022/07/13 06:56:18;;;;;;;2.92;0.68;;;;;;;;;;5029723;28;20174;-80
2022/07/13 06:58:44;;;;;;;2.65;0.77;;;;;;;;;;5037942;28;20048;-79
2022/07/13 07:01:09;;;;;;;1.98;0.70;;;;;;;;;;5025053;28;20423;-80
2022/07/13 07:03:35;;;;;;;1.90;0.70;;;;;;;;;;5024117;28;20174;-80
2022/07/13 07:06:00;;;;;;;1.70;0.70;;;;;;;;;;5017982;28;20028;-79
2022/07/13 07:08:26;;;;;;;2.40;0.90;;;;;;;;;;5028577;28;20174;-79
2022/07/13 07:10:51;;;;;;;3.13;0.50;;;;;;;;;;5022497;28;20040;-81
2022/07/13 07:13:16;;;;;;;1.33;0.60;;;;;;;;;;5036025;28;20495;-80
2022/07/13 07:15:42;;;;;;;1.83;0.80;;;;;;;;;;5027955;28;20564;-79
2022/07/13 07:18:07;;;;;;;2.08;0.77;;;;;;;;;;5036512;28;20594;-80
2022/07/13 07:20:33;;;;;;;1.40;0.60;;;;;;;;;;5035933;28;20037;-79
2022/07/13 07:22:59;;;;;;;1.05;0.50;;;;;;;;;;5037961;28;20043;-80
2022/07/13 07:25:24;;;;;;;1.80;0.60;;;;;;;;;;5028312;28;20492;-80
2022/07/13 07:27:50;;;;;;;2.15;0.93;;;;;;;;;;5036249;28;20135;-80
2022/07/13 07:30:16;;;;;;;2.17;1.00;;;;;;;;;;5022417;28;20119;-81
2022/07/13 07:32:41;;;;;;;2.47;0.73;;;;;;;;;;5026207;28;20516;-83
2022/07/13 07:35:07;;;;;;;2.10;0.77;;;;;;;;;;5022803;28;20056;-80
2022/07/13 07:37:33;;;;;;;1.42;0.68;;;;;;;;;;5027971;28;20040;-78
2022/07/13 07:39:59;;;;;;;1.52;0.60;;;;;;;;;;5029508;28;20041;-80
2022/07/13 07:42:25;;;;;;;2.13;0.60;;;;;;;;;;5022967;28;20036;-80
2022/07/13 07:44:50;;;;;;;4.97;0.85;;;;;;;;;;5038609;28;20041;-80
2022/07/13 07:47:16;;;;;;;1.35;0.60;;;;;;;;;;5034810;28;20029;-80
2022/07/13 07:49:42;;;;;;;1.50;0.60;;;;;;;;;;5037550;28;20045;-82
2022/07/13 07:52:08;;;;;;;3.17;1.13;;;;;;;;;;5021665;28;20041;-80
2022/07/13 07:54:34;;;;;;;1.48;0.52;;;;;;;;;;5022085;28;20550;-81
2022/07/13 07:56:59;;;;;;;1.52;0.60;;;;;;;;;;5037812;28;20060;-80
2022/07/13 07:59:24;;;;;;;2.58;0.70;;;;;;;;;;5039261;28;20048;-80
2022/07/13 08:01:50;;;;;;;1.52;0.60;;;;;;;;;;5031400;28;20033;-81
2022/07/13 08:04:15;;;;;;;1.80;0.70;;;;;;;;;;5030393;28;20560;-80
2022/07/13 08:06:41;;;;;;;1.73;0.70;;;;;;;;;;5027184;28;20055;-81
2022/07/13 08:09:06;;;;;;;1.70;0.60;;;;;;;;;;5028051;28;20074;-81
2022/07/13 08:11:32;;;;;;;1.77;0.70;;;;;;;;;;5020075;28;20122;-81
2022/07/13 08:13:57;;;;;;;1.55;0.70;;;;;;;;;;5033022;28;20033;-80
2022/07/13 08:16:23;;;;;;;3.22;1.10;;;;;;;;;;5038356;28;20039;-80
2022/07/13 08:18:49;;;;;;;1.42;0.70;;;;;;;;;;5039700;28;20040;-81
2022/07/13 08:21:14;;;;;;;1.30;0.65;;;;;;;;;;5032306;28;20040;-79
2022/07/13 08:23:52;;;;;;;3.60;0.80;;;;;;;;;;5017463;28;20029;-79
2022/07/13 08:26:24;;;;;;;1.67;0.70;;;;;;;;;;5024224;28;20807;-80
2022/07/13 08:28:51;;;;;;;1.77;0.80;;;;;;;;;;5020711;28;20028;-79
2022/07/13 08:31:16;;;;;;;1.20;0.60;;;;;;;;;;5027975;28;20473;-80
2022/07/13 08:39:11;;;;;;;1.20;0.60;;;;;;;;;;5043489;28;20511;-80
2022/07/13 08:41:38;;;;;;;1.53;0.70;;;;;;;;;;5023736;28;20037;-80
2022/07/13 08:44:03;;;;;;;1.48;0.80;;;;;;;;;;5036982;28;20431;-80
2022/07/13 08:46:29;;;;;;;1.10;0.50;;;;;;;;;;5021659;28;20032;-80
2022/07/13 08:48:55;;;;;;;1.75;0.68;;;;;;;;;;5032035;28;20391;-81
2022/07/13 08:51:21;;;;;;;1.58;0.65;;;;;;;;;;5022276;28;20044;-80
2022/07/13 08:53:48;;;;;;;1.98;0.60;;;;;;;;;;5030063;28;20037;-79
2022/07/13 08:56:17;;;;;;;1.98;0.80;;;;;;;;;;5029201;28;20118;-81
2022/07/13 08:58:42;;;;;;;1.13;0.50;;;;;;;;;;5029950;28;20045;-81
2022/07/13 09:01:08;;;;;;;2.95;0.80;;;;;;;;;;5031471;28;20041;-80
2022/07/13 09:03:34;;;;;;;1.02;0.40;;;;;;;;;;5023354;28;20040;-80
2022/07/13 09:06:00;;;;;;;0.65;0.38;;;;;;;;;;5029392;28;20041;-81
2022/07/13 09:08:25;;;;;;;1.00;0.40;;;;;;;;;;5021142;28;20472;-81
2022/07/13 09:10:59;;;;;;;2.45;0.70;;;;;;;;;;5020923;28;20024;-81
2022/07/13 09:13:41;;;;;;;1.55;0.57;;;;;;;;;;5018170;28;20040;-80
2022/07/13 09:16:20;;;;;;;1.48;0.60;;;;;;;;;;5025179;28;20024;-80
2022/07/13 09:18:51;;;;;;;2.53;0.98;;;;;;;;;;5004759;28;20369;-80
2022/07/13 09:21:18;;;;;;;1.13;0.40;;;;;;;;;;5027930;28;20032;-80
2022/07/13 09:23:47;;;;;;;2.40;0.60;;;;;;;;;;5039334;28;20044;-80
2022/07/13 09:26:13;;;;;;;1.92;0.73;;;;;;;;;;5027971;28;20044;-82
2022/07/13 09:28:43;;;;;;;2.35;0.60;;;;;;;;;;5037863;28;20031;-80
2022/07/13 09:31:09;;;;;;;1.77;0.70;;;;;;;;;;5020601;28;20048;-82
2022/07/13 09:33:35;;;;;;;1.30;0.55;;;;;;;;;;5019943;28;20029;-81
2022/07/13 09:36:22;;;;;;;1.20;0.47;;;;;;;;;;5009352;28;20021;-83
2022/07/13 09:38:52;;;;;;;1.42;0.50;;;;;;;;;;5023508;28;20279;-81
2022/07/13 09:41:23;;;;;;;1.55;0.60;;;;;;;;;;5035432;28;20170;-80
2022/07/13 09:46:47;;;;;;;0.98;0.43;;;;;;;;;;5055117;28;20035;-79
2022/07/13 09:49:15;;;;;;;1.20;0.60;;;;;;;;;;5021421;28;20037;-79
2022/07/13 09:51:44;;;;;;;2.42;0.82;;;;;;;;;;4976718;28;1559564;-80
2022/07/13 09:54:11;;;;;;;1.25;0.70;;;;;;;;;;5044156;28;20037;-80
2022/07/13 09:56:38;;;;;;;1.60;0.80;;;;;;;;;;5042600;28;20076;-80
2022/07/13 09:59:04;;;;;;;1.25;0.52;;;;;;;;;;5016083;28;20037;-80
2022/07/13 10:01:30;;;;;;;1.37;0.50;;;;;;;;;;5018848;28;20025;-80
2022/07/13 10:03:57;;;;;;;1.55;0.60;;;;;;;;;;5035319;28;20039;-80
2022/07/13 10:06:22;;;;;;;0.90;0.40;;;;;;;;;;5025847;28;20494;-79
2022/07/13 10:08:48;;;;;;;2.58;0.50;;;;;;;;;;5032628;28;20041;-80
2022/07/13 10:11:14;;;;;;;1.08;0.50;;;;;;;;;;5026536;28;20045;-80
2022/07/13 10:13:39;;;;;;;0.90;0.40;;;;;;;;;;5026838;28;20037;-80
2022/07/13 10:16:05;;;;;;;0.98;0.40;;;;;;;;;;5025737;28;20489;-79
2022/07/13 10:18:32;;;;;;;1.10;0.50;;;;;;;;;;5031660;28;20082;-79
2022/07/13 10:21:01;;;;;;;;;;;;;;;;;;5021190;28;20121;-79
2022/07/13 10:23:35;;;;;;;0.82;0.40;;;;;;;;;;5030148;28;19919;-79
2022/07/13 10:26:00;;;;;;;1.63;0.60;;;;;;;;;;5025670;28;20439;-80
2022/07/13 10:28:26;;;;;;;1.08;0.45;;;;;;;;;;5023700;28;20087;-79
2022/07/13 10:30:52;;;;;;;1.40;0.60;;;;;;;;;;5026695;28;20045;-80
2022/07/13 10:33:24;;;;;;;1.17;0.55;;;;;;;;;;5019803;28;20112;-80
2022/07/13 10:35:52;;;;;;;1.60;0.60;;;;;;;;;;5011006;28;20033;-79
2022/07/13 10:38:20;;;;;;;1.13;0.50;;;;;;;;;;5028105;28;20053;-81
2022/07/13 10:40:46;;;;;;;1.15;0.50;;;;;;;;;;5033180;28;20048;-79
2022/07/13 10:43:13;;;;;;;1.92;0.60;;;;;;;;;;5032991;28;20041;-80
2022/07/13 10:45:43;;;;;;;1.35;0.60;;;;;;;;;;5025087;28;20623;-79
2022/07/13 10:48:30;;;;;;;1.13;0.50;;;;;;;;;;5007353;28;20073;-81
2022/07/13 10:50:57;;;;;;;0.70;0.40;;;;;;;;;;5026487;28;20049;-79
2022/07/13 10:53:38;;;;;;;1.02;0.52;;;;;;;;;;5024856;28;20145;-79
2022/07/13 10:56:04;;;;;;;3.45;0.70;;;;;;;;;;5022217;28;20091;-80
2022/07/13 10:58:32;;;;;;;1.10;0.60;;;;;;;;;;5011585;28;20033;-79
2022/07/13 11:01:07;;;;;;;1.48;0.60;;;;;;;;;;5019212;28;20040;-81
2022/07/13 11:03:44;;;;;;;2.30;0.60;;;;;;;;;;5026054;28;20033;-80
2022/07/13 11:06:12;;;;;;;1.33;0.60;;;;;;;;;;5033001;28;20038;-79
2022/07/13 11:08:38;;;;;;;1.10;0.60;;;;;;;;;;5034811;28;20041;-82
2022/07/13 11:11:11;;;;;;;1.30;0.63;;;;;;;;;;5025271;28;20035;-81
2022/07/13 11:13:37;;;;;;;1.52;0.70;;;;;;;;;;5031925;28;20037;-79
2022/07/13 11:16:03;;;;;;;1.65;0.60;;;;;;;;;;5021413;28;20167;-80
2022/07/13 11:18:33;;;;;;;2.70;0.95;;;;;;;;;;5032275;28;20029;-79
2022/07/13 11:21:14;;;;;;;1.70;0.70;;;;;;;;;;5032315;28;20037;-79
2022/07/13 11:26:54;;;;;;;3.40;0.93;;;;;;;;;;5026775;28;20036;-80
2022/07/13 11:29:32;;;;;;;1.27;0.60;;;;;;;;;;5014125;28;20118;-81
2022/07/13 11:31:59;;;;;;;2.30;0.70;;;;;;;;;;5026584;28;20030;-80
2022/07/13 11:34:25;;;;;;;1.45;0.52;;;;;;;;;;5019489;28;20052;-80
2022/07/13 11:36:52;;;;;;;1.77;0.70;;;;;;;;;;5025665;28;20430;-80
2022/07/13 11:39:24;;;;;;;1.15;0.63;;;;;;;;;;5019593;28;20037;-80
2022/07/13 11:41:51;;;;;;;1.67;0.70;;;;;;;;;;5024730;28;20111;-80
2022/07/13 11:44:19;;;;;;;4.13;0.80;;;;;;;;;;5026730;28;20040;-79
2022/07/13 11:46:45;;;;;;;2.22;0.55;;;;;;;;;;5034637;28;20045;-79
2022/07/13 11:49:11;;;;;;;1.02;0.50;;;;;;;;;;5025450;28;20079;-79
2022/07/13 11:51:36;;;;;;;0.80;0.50;;;;;;;;;;5031030;28;20069;-80
2022/07/13 11:54:08;;;;;;;2.17;0.43;;;;;;;;;;5018901;28;20045;-83
2022/07/13 11:56:34;;;;;;;1.08;0.57;;;;;;;;;;5032765;28;20056;-80
2022/07/13 11:58:59;;;;;;;1.48;0.60;;;;;;;;;;5033237;28;20176;-80
2022/07/13 12:01:25;;;;;;;1.08;0.60;;;;;;;;;;5016501;28;20049;-79
2022/07/13 12:03:51;;;;;;;1.23;0.55;;;;;;;;;;5034396;28;20052;-80
2022/07/13 12:06:17;;;;;;;1.55;0.63;;;;;;;;;;5024472;28;20041;-80
2022/07/13 12:08:44;;;;;;;1.98;0.80;;;;;;;;;;5026201;28;20040;-79
2022/07/13 12:11:13;;;;;;;2.20;0.67;;;;;;;;;;5024130;28;20090;-80
2022/07/13 12:13:39;;;;;;;2.13;0.70;;;;;;;;;;5032688;28;20079;-80
2022/07/13 12:16:05;;;;;;;1.50;0.60;;;;;;;;;;5024696;28;20116;-80
2022/07/13 12:18:32;;;;;;;1.65;0.63;;;;;;;;;;5015644;28;20642;-80
2022/07/13 12:20:58;;;;;;;2.10;0.70;;;;;;;;;;5029829;28;20500;-79
2022/07/13 12:23:26;;;;;;;1.85;0.55;;;;;;;;;;5032809;28;20040;-80
2022/07/13 12:26:04;;;;;;;1.60;0.60;;;;;;;;;;5003846;28;20026;-79
2022/07/13 12:28:30;;;;;;;1.48;0.43;;;;;;;;;;4999068;28;20133;-80
2022/07/13 12:31:00;;;;;;;1.52;0.70;;;;;;;;;;5019174;28;20038;-81
2022/07/13 12:33:25;;;;;;;2.15;0.57;;;;;;;;;;5036441;28;20044;-80
2022/07/13 12:36:04;;;;;;;1.30;0.55;;;;;;;;;;5032153;28;20086;-81
2022/07/13 12:38:30;;;;;;;2.45;0.50;;;;;;;;;;5001225;28;20025;-79
2022/07/13 12:40:57;;;;;;;1.03;0.50;;;;;;;;;;5004147;28;20057;-80
2022/07/13 12:43:24;;;;;;;1.37;0.50;;;;;;;;;;5007253;28;20033;-80
2022/07/13 12:45:53;;;;;;;;;;;;;;;;;;5019433;28;20041;-80
2022/07/13 12:48:21;;;;;;;1.27;0.50;;;;;;;;;;5024014;28;19917;-80
2022/07/13 12:51:02;;;;;;;1.77;0.50;;;;;;;;;;5025725;28;20030;-79
2022/07/13 12:53:52;;;;;;;1.38;0.60;;;;;;;;;;5019251;28;20136;-79
2022/07/13 12:56:19;;;;;;;1.25;0.60;;;;;;;;;;5047462;28;20124;-80
2022/07/13 12:58:49;;;;;;;1.52;0.57;;;;;;;;;;5039899;28;20041;-80
2022/07/13 13:01:37;;;;;;;1.52;0.70;;;;;;;;;;5039433;28;20032;-80
2022/07/13 13:04:07;;;;;;;1.42;0.47;;;;;;;;;;5031192;28;20070;-80
2022/07/13 13:06:34;;;;;;;2.20;0.68;;;;;;;;;;5041919;28;20426;-80
2022/07/13 13:09:09;;;;;;;1.20;0.60;;;;;;;;;;5040260;28;20825;-80
2022/07/13 13:11:35;;;;;;;1.52;0.55;;;;;;;;;;5046406;28;20040;-81
2022/07/13 13:14:01;;;;;;;2.03;0.50;;;;;;;;;;5038976;28;20040;-81
2022/07/13 13:16:27;;;;;;;2.28;0.73;;;;;;;;;;5029632;28;20606;-79
2022/07/13 13:18:52;;;;;;;1.55;0.70;;;;;;;;;;5039530;28;20032;-80
2022/07/13 13:21:17;;;;;;;2.08;0.60;;;;;;;;;;5029142;28;20040;-79
2022/07/13 13:23:45;;;;;;;1.08;0.47;;;;;;;;;;5016356;28;20060;-82
2022/07/13 13:26:10;;;;;;;1.23;0.50;;;;;;;;;;5017511;28;20041;-79
2022/07/13 13:31:20;;;;;;;1.27;0.63;;;;;;;;;;5032675;28;20040;-81
2022/07/13 13:33:45;;;;;;;1.27;0.45;;;;;;;;;;5010596;28;20045;-79
2022/07/13 13:36:11;;;;;;;0.90;0.40;;;;;;;;;;5019577;28;20041;-80
2022/07/13 13:38:36;;;;;;;1.23;0.40;;;;;;;;;;5027299;28;20029;-80
2022/07/13 13:41:03;;;;;;;1.98;0.45;;;;;;;;;;5024507;28;20058;-80
2022/07/13 13:43:29;;;;;;;0.85;0.45;;;;;;;;;;5030900;28;20441;-79
2022/07/13 13:45:54;;;;;;;2.35;0.40;;;;;;;;;;5021336;28;20032;-79
2022/07/13 13:48:20;;;;;;;0.80;0.40;;;;;;;;;;5038595;28;20151;-79
2022/07/13 13:50:45;;;;;;;1.73;0.50;;;;;;;;;;5029731;28;20131;-80
2022/07/13 13:53:10;;;;;;;1.23;0.60;;;;;;;;;;5016268;28;20030;-79
2022/07/13 13:55:36;;;;;;;1.00;0.47;;;;;;;;;;5014999;28;20025;-80
2022/07/13 13:58:01;;;;;;;1.40;0.55;;;;;;;;;;5020770;28;20128;-79
2022/07/13 14:00:26;;;;;;;1.83;0.50;;;;;;;;;;5048284;28;20128;-81
2022/07/13 14:02:52;;;;;;;0.55;0.30;;;;;;;;;;5017924;28;20061;-82
2022/07/13 14:05:17;;;;;;;1.02;0.40;;;;;;;;;;5012592;28;20033;-80
2022/07/13 14:07:43;;;;;;;4.72;0.60;;;;;;;;;;5036316;28;20365;-79
2022/07/13 14:10:09;;;;;;;1.42;0.60;;;;;;;;;;5027934;28;20059;-81
2022/07/13 14:12:34;;;;;;;3.05;0.52;;;;;;;;;;5025445;28;20029;-81
2022/07/13 14:15:00;;;;;;;1.67;0.70;;;;;;;;;;5024877;28;20095;-80
2022/07/13 14:17:25;;;;;;;2.75;0.60;;;;;;;;;;5033951;28;20040;-79
2022/07/13 14:19:50;;;;;;;1.60;0.50;;;;;;;;;;5021483;28;20047;-81
2022/07/13 14:22:16;;;;;;;1.42;0.50;;;;;;;;;;5030116;28;20033;-79
2022/07/13 14:24:41;;;;;;;1.33;0.50;;;;;;;;;;5030774;28;20036;-80
2022/07/13 14:27:06;;;;;;;0.93;0.50;;;;;;;;;;5027112;28;20036;-81
2022/07/13 14:29:32;;;;;;;1.90;0.57;;;;;;;;;;5030588;28;20488;-80
2022/07/13 14:31:57;;;;;;;1.55;0.55;;;;;;;;;;5014781;28;20068;-81
2022/07/13 14:34:23;;;;;;;1.20;0.50;;;;;;;;;;5003213;28;20420;-81
2022/07/13 14:36:49;;;;;;;1.45;0.50;;;;;;;;;;5031744;28;20078;-80
2022/07/13 14:39:14;;;;;;;1.70;0.50;;;;;;;;;;5024189;28;20044;-80
2022/07/13 14:41:40;;;;;;;1.48;0.50;;;;;;;;;;5029576;28;20429;-81
2022/07/13 14:44:05;;;;;;;1.85;0.50;;;;;;;;;;5022400;28;20389;-81
2022/07/13 14:46:30;;;;;;;1.38;0.57;;;;;;;;;;5013778;28;20036;-81
2022/07/13 14:48:55;;;;;;;1.45;0.50;;;;;;;;;;5013613;28;20037;-80
2022/07/13 14:51:21;;;;;;;2.67;0.57;;;;;;;;;;5027645;28;20041;-80
2022/07/13 14:53:48;;;;;;;1.13;0.50;;;;;;;;;;5030278;28;20033;-80